George Allen — WDF9749 — position and weather

sailwx.info

Track history (hours):
 
Tides and Currents Weather Stations Pressure Air Temp Water Temp Dewpoint Dewpoint Depression Visibility Wind Speed Wind Dir Waves Ship Positions

George Allen

Owner: Blessey Enterprises, Inc., Harahan, LA. More information available from US FCC via Universal Licensing System and Coast Guard Vessel Documentation Center.

Last reported at 2015-Mar-30 17:17 UTC. Time now 2015-Mar-31 12:44 UTC.
Position N 29°47' W 095°04'.

Length 25 m.

Type: Towing. MMSI: 367508440.

Date/timePositionNaut miles runAvg speedWind from/ knotsBaromVisibWave heightAir tempDewpointWater temp
2015-Mar-30 17:17N 29°47' W 095°04'2 2.2
2015-Mar-30 16:32N 29°46' W 095°05'2 1.0
2015-Mar-30 14:18N 29°44' W 095°03'0 0.0
2015-Mar-30 13:15N 29°44' W 095°03'0 0.0
2015-Mar-30 12:10N 29°44' W 095°03'0 0.0
2015-Mar-30 11:30N 29°44' W 095°03'0 0.0
2015-Mar-29 21:07N 29°44' W 095°03'0 0.1
2015-Mar-29 20:33N 29°44' W 095°03'3 3.0
2015-Mar-29 19:28N 29°47' W 095°05'1 0.1
2015-Mar-29 12:21N 29°47' W 095°04'0 0.1
2015-Mar-29 11:27N 29°47' W 095°04'0 0.0
2015-Mar-29 10:31N 29°47' W 095°04'2 2.3
2015-Mar-29 09:33N 29°45' W 095°04'6 6.4
2015-Mar-29 08:33N 29°41' W 094°59'8 7.6
2015-Mar-29 07:33N 29°34' W 094°55'8 7.3
2015-Mar-29 06:32N 29°27' W 094°51'  
2015-Mar-26 09:33N 29°34' W 094°55'8 7.6
2015-Mar-26 08:33N 29°41' W 094°59'7 7.3
2015-Mar-26 07:32N 29°46' W 095°05'2 1.3
2015-Mar-26 06:15N 29°47' W 095°05'0 0.2
2015-Mar-26 05:33N 29°47' W 095°05'3 1.9
2015-Mar-26 04:09N 29°45' W 095°06'0 0.2
2015-Mar-26 03:33N 29°45' W 095°06'0 0.0
2015-Mar-26 02:30N 29°45' W 095°06'0 0.0
2015-Mar-26 01:32N 29°45' W 095°06'0 0.0
2015-Mar-26 00:30N 29°45' W 095°06'0 0.0
2015-Mar-25 22:33N 29°45' W 095°06'0 0.0
2015-Mar-25 21:27N 29°45' W 095°06'0 0.0
2015-Mar-25 20:33N 29°45' W 095°06'0 0.0
2015-Mar-25 19:33N 29°45' W 095°06'0 0.0
2015-Mar-25 18:33N 29°45' W 095°06'0 0.0
2015-Mar-25 17:33N 29°45' W 095°06'0 0.0
2015-Mar-25 16:33N 29°45' W 095°06'0 0.1
2015-Mar-25 15:33N 29°45' W 095°06'0 0.0
2015-Mar-25 14:33N 29°45' W 095°06'0 0.0
2015-Mar-25 13:31N 29°45' W 095°06'0 0.0
2015-Mar-25 12:33N 29°45' W 095°06'0 0.0
2015-Mar-25 11:03N 29°45' W 095°06'0 0.0
2015-Mar-25 10:33N 29°45' W 095°06'0 0.0
2015-Mar-25 09:10N 29°45' W 095°06'0 0.0
2015-Mar-25 07:23N 29°45' W 095°06'0 0.0
2015-Mar-25 06:31N 29°45' W 095°06'0 0.0
2015-Mar-25 05:27N 29°45' W 095°06'0 0.0
2015-Mar-25 04:30N 29°45' W 095°06'1 0.7
2015-Mar-25 03:33N 29°46' W 095°05'2 1.5
2015-Mar-25 02:19N 29°47' W 095°05'0 0.0
2015-Mar-24 18:33N 29°47' W 095°05'0 0.0
2015-Mar-24 17:33N 29°47' W 095°05'0 0.0
2015-Mar-24 16:33N 29°47' W 095°05'0 0.1
2015-Mar-24 15:34N 29°47' W 095°05'0 0.0
2015-Mar-24 14:33N 29°47' W 095°05'0 0.0
2015-Mar-24 13:33N 29°47' W 095°05'0 0.0
2015-Mar-24 12:33N 29°47' W 095°05'0 0.0
2015-Mar-24 11:33N 29°47' W 095°05'0 0.0
2015-Mar-24 10:33N 29°47' W 095°05'0 0.1
2015-Mar-24 09:33N 29°47' W 095°05'0 0.4
2015-Mar-24 08:34N 29°47' W 095°04'1 0.5
2015-Mar-24 07:33N 29°47' W 095°05'0 0.0
2015-Mar-24 06:33N 29°47' W 095°05'0 0.0
2015-Mar-24 05:33N 29°47' W 095°05'0 0.1
2015-Mar-24 04:34N 29°47' W 095°05'0 0.4
2015-Mar-24 03:33N 29°47' W 095°04'1 0.7
2015-Mar-24 02:33N 29°47' W 095°05'5 4.6
2015-Mar-24 01:33N 29°43' W 095°01'7 6.5
2015-Mar-24 00:33N 29°38' W 094°58'8 7.6
2015-Mar-23 23:33N 29°31' W 094°53'7 7.4
2015-Mar-23 22:33N 29°24' W 094°49'  
Track history (hours):
 
Tides and Currents Weather Stations Pressure Air Temp Water Temp Dewpoint Dewpoint Depression Visibility Wind Speed Wind Dir Waves Ship Positions

George Allen

Owner: Blessey Enterprises, Inc., Harahan, LA. More information available from US FCC via Universal Licensing System and Coast Guard Vessel Documentation Center.

Last reported at 2015-Mar-30 17:17 UTC. Time now 2015-Mar-31 12:44 UTC.
Position N 29°47' W 095°04'.

Length 25 m.

Type: Towing. MMSI: 367508440.

Date/timePositionNaut miles runAvg speedWind from/ knotsBaromVisibWave heightAir tempDewpointWater temp
2015-Mar-30 17:17N 29°47' W 095°04'2 2.2
2015-Mar-30 16:32N 29°46' W 095°05'2 1.0
2015-Mar-30 14:18N 29°44' W 095°03'0 0.0
2015-Mar-30 13:15N 29°44' W 095°03'0 0.0
2015-Mar-30 12:10N 29°44' W 095°03'0 0.0
2015-Mar-30 11:30N 29°44' W 095°03'0 0.0
2015-Mar-29 21:07N 29°44' W 095°03'0 0.1
2015-Mar-29 20:33N 29°44' W 095°03'3 3.0
2015-Mar-29 19:28N 29°47' W 095°05'1 0.1
2015-Mar-29 12:21N 29°47' W 095°04'0 0.1
2015-Mar-29 11:27N 29°47' W 095°04'0 0.0
2015-Mar-29 10:31N 29°47' W 095°04'2 2.3
2015-Mar-29 09:33N 29°45' W 095°04'6 6.4
2015-Mar-29 08:33N 29°41' W 094°59'8 7.6
2015-Mar-29 07:33N 29°34' W 094°55'8 7.3
2015-Mar-29 06:32N 29°27' W 094°51'  
2015-Mar-26 09:33N 29°34' W 094°55'8 7.6
2015-Mar-26 08:33N 29°41' W 094°59'7 7.3
2015-Mar-26 07:32N 29°46' W 095°05'2 1.3
2015-Mar-26 06:15N 29°47' W 095°05'0 0.2
2015-Mar-26 05:33N 29°47' W 095°05'3 1.9
2015-Mar-26 04:09N 29°45' W 095°06'0 0.2
2015-Mar-26 03:33N 29°45' W 095°06'0 0.0
2015-Mar-26 02:30N 29°45' W 095°06'0 0.0
2015-Mar-26 01:32N 29°45' W 095°06'0 0.0
2015-Mar-26 00:30N 29°45' W 095°06'0 0.0
2015-Mar-25 22:33N 29°45' W 095°06'0 0.0
2015-Mar-25 21:27N 29°45' W 095°06'0 0.0
2015-Mar-25 20:33N 29°45' W 095°06'0 0.0
2015-Mar-25 19:33N 29°45' W 095°06'0 0.0
2015-Mar-25 18:33N 29°45' W 095°06'0 0.0
2015-Mar-25 17:33N 29°45' W 095°06'0 0.0
2015-Mar-25 16:33N 29°45' W 095°06'0 0.1
2015-Mar-25 15:33N 29°45' W 095°06'0 0.0
2015-Mar-25 14:33N 29°45' W 095°06'0 0.0
2015-Mar-25 13:31N 29°45' W 095°06'0 0.0
2015-Mar-25 12:33N 29°45' W 095°06'0 0.0
2015-Mar-25 11:03N 29°45' W 095°06'0 0.0
2015-Mar-25 10:33N 29°45' W 095°06'0 0.0
2015-Mar-25 09:10N 29°45' W 095°06'0 0.0
2015-Mar-25 07:23N 29°45' W 095°06'0 0.0
2015-Mar-25 06:31N 29°45' W 095°06'0 0.0
2015-Mar-25 05:27N 29°45' W 095°06'0 0.0
2015-Mar-25 04:30N 29°45' W 095°06'1 0.7
2015-Mar-25 03:33N 29°46' W 095°05'2 1.5
2015-Mar-25 02:19N 29°47' W 095°05'0 0.0
2015-Mar-24 18:33N 29°47' W 095°05'0 0.0
2015-Mar-24 17:33N 29°47' W 095°05'0 0.0
2015-Mar-24 16:33N 29°47' W 095°05'0 0.1
2015-Mar-24 15:34N 29°47' W 095°05'0 0.0
2015-Mar-24 14:33N 29°47' W 095°05'0 0.0
2015-Mar-24 13:33N 29°47' W 095°05'0 0.0
2015-Mar-24 12:33N 29°47' W 095°05'0 0.0
2015-Mar-24 11:33N 29°47' W 095°05'0 0.0
2015-Mar-24 10:33N 29°47' W 095°05'0 0.1
2015-Mar-24 09:33N 29°47' W 095°05'0 0.4
2015-Mar-24 08:34N 29°47' W 095°04'1 0.5
2015-Mar-24 07:33N 29°47' W 095°05'0 0.0
2015-Mar-24 06:33N 29°47' W 095°05'0 0.0
2015-Mar-24 05:33N 29°47' W 095°05'0 0.1
2015-Mar-24 04:34N 29°47' W 095°05'0 0.4
2015-Mar-24 03:33N 29°47' W 095°04'1 0.7
2015-Mar-24 02:33N 29°47' W 095°05'5 4.6
2015-Mar-24 01:33N 29°43' W 095°01'7 6.5
2015-Mar-24 00:33N 29°38' W 094°58'8 7.6
2015-Mar-23 23:33N 29°31' W 094°53'7 7.4
2015-Mar-23 22:33N 29°24' W 094°49'  

Dump ship's entire track history